Lower Pig Pen, North Carolina
Current Conditions -  °F | °C
As of 10:35 AM on Thursday 23 Oct 2014 (Local Time) from K0A9 Reporting Station
Overcast Overcast  
Wind Chill: 46°   Ceiling: 2600
Heat Index: 48°   Visibility: 10mi
Dew Point: 37°   Wind: 5mph
Humidity: 66%   Direction: 290°WNW
Pressure: 30.21"   Gusts: NA
Location:  35.955°N, 82.2044°W
Report Text: K0A9 231435Z AUTO 29004KT 10SM OVC026 09/03 A3021 RMK
Loading
Personal Weather Stations






























Interactive Weather Map
Tropical Storm Tracking
New forecast layout! Learn more

10-Day Weather Forecast

Advertisements
Track Severe Weather on mobile